createdAt,value
2023-05-19T00:00:31.926Z,8.10
2023-05-19T00:05:36.287Z,8.10
2023-05-19T00:10:40.631Z,8.10
2023-05-19T00:15:47.255Z,8.00
2023-05-19T00:20:52.675Z,7.90
2023-05-19T00:25:58.395Z,7.90
2023-05-19T00:31:03.338Z,7.90
2023-05-19T00:36:07.141Z,7.80
2023-05-19T00:41:11.122Z,7.70
2023-05-19T00:46:16.125Z,7.70
2023-05-19T00:51:19.729Z,7.60
2023-05-19T00:56:28.149Z,7.70
2023-05-19T01:01:33.437Z,7.60
2023-05-19T01:06:37.635Z,7.60
2023-05-19T01:11:41.020Z,7.50
2023-05-19T01:16:49.002Z,7.40
2023-05-19T01:22:23.327Z,7.50
2023-05-19T01:27:42.913Z,7.40
2023-05-19T01:32:48.543Z,7.30
2023-05-19T01:37:52.345Z,7.30
2023-05-19T01:42:57.813Z,7.20
2023-05-19T01:48:12.698Z,7.10
2023-05-19T01:53:16.442Z,7.00
2023-05-19T01:58:22.150Z,7.00
2023-05-19T02:03:38.526Z,7.00
2023-05-19T02:08:44.745Z,6.90
2023-05-19T02:13:48.452Z,6.90
2023-05-19T02:18:54.730Z,6.80
2023-05-19T02:23:58.634Z,6.80
2023-05-19T02:29:04.489Z,6.70
2023-05-19T02:34:11.516Z,6.70
2023-05-19T02:39:16.161Z,6.70
2023-05-19T02:44:20.897Z,6.60
2023-05-19T02:49:26.060Z,6.60
2023-05-19T02:54:31.041Z,6.60
2023-05-19T02:59:38.326Z,6.40
2023-05-19T03:04:43.448Z,6.40
2023-05-19T03:09:47.120Z,6.30
2023-05-19T03:14:50.848Z,6.30
2023-05-19T03:19:55.867Z,6.40
2023-05-19T03:25:00.626Z,6.50
2023-05-19T03:30:06.826Z,6.50
2023-05-19T03:35:20.684Z,6.40
2023-05-19T03:40:27.819Z,6.40
2023-05-19T03:45:39.122Z,6.40
2023-05-19T03:51:05.141Z,6.30
2023-05-19T03:56:13.892Z,6.30
2023-05-19T04:01:18.316Z,6.20
2023-05-19T04:06:23.741Z,6.20
2023-05-19T04:11:27.049Z,6.20
2023-05-19T04:16:31.021Z,6.20
2023-05-19T04:21:39.822Z,6.30
2023-05-19T04:26:47.063Z,6.30
2023-05-19T04:31:52.963Z,6.30
2023-05-19T04:36:59.299Z,6.30
2023-05-19T04:42:04.966Z,6.40
2023-05-19T04:47:12.564Z,6.60
2023-05-19T04:52:22.042Z,6.80
2023-05-19T04:57:29.338Z,7.00
2023-05-19T05:02:34.193Z,7.00
2023-05-19T05:07:41.966Z,7.10
2023-05-19T05:12:46.450Z,7.30
2023-05-19T05:17:51.933Z,7.40
2023-05-19T05:22:58.554Z,7.50
2023-05-19T05:28:05.341Z,7.70
2023-05-19T05:33:13.275Z,7.90
2023-05-19T05:38:20.890Z,8.00
2023-05-19T05:43:25.162Z,8.30
2023-05-19T05:48:35.313Z,8.60
2023-05-19T05:53:44.807Z,9.10
2023-05-19T05:58:50.938Z,9.50
2023-05-19T06:03:55.288Z,10.00
2023-05-19T06:09:01.949Z,10.30
2023-05-19T06:14:07.187Z,10.60
2023-05-19T06:19:41.964Z,11.00
2023-05-19T06:24:49.181Z,11.40
2023-05-19T06:29:53.057Z,11.70
2023-05-19T06:34:56.995Z,11.80
2023-05-19T06:40:04.048Z,11.90
2023-05-19T06:45:11.414Z,12.20
2023-05-19T06:50:18.713Z,12.70
2023-05-19T06:55:27.106Z,12.80
2023-05-19T07:00:32.194Z,13.10
2023-05-19T07:05:37.788Z,13.20
2023-05-19T07:10:45.279Z,13.50
2023-05-19T07:15:56.038Z,13.70
2023-05-19T07:21:02.408Z,13.90
2023-05-19T07:26:08.887Z,14.60
2023-05-19T07:31:15.210Z,15.00
2023-05-19T07:36:19.063Z,15.50
2023-05-19T07:41:26.283Z,15.60
2023-05-19T07:46:30.615Z,16.20
2023-05-19T07:51:35.797Z,16.90
2023-05-19T07:56:41.563Z,17.10
2023-05-19T08:01:46.532Z,17.50
2023-05-19T08:06:50.213Z,17.90
2023-05-19T08:11:55.830Z,17.70
2023-05-19T08:16:59.414Z,18.10
2023-05-19T08:22:03.733Z,18.50
2023-05-19T08:27:08.883Z,18.40
2023-05-19T08:32:13.606Z,18.60
2023-05-19T08:37:19.090Z,18.40
2023-05-19T08:42:24.850Z,19.00
2023-05-19T08:47:28.320Z,19.20
2023-05-19T08:52:34.800Z,19.20
2023-05-19T08:57:39.612Z,19.30
2023-05-19T09:02:50.759Z,19.80
2023-05-19T09:08:09.641Z,19.90
2023-05-19T09:13:17.385Z,20.50
2023-05-19T09:18:23.373Z,21.00
2023-05-19T09:23:29.984Z,21.40
2023-05-19T09:28:36.902Z,21.60
2023-05-19T09:33:43.654Z,21.60
2023-05-19T09:38:49.511Z,21.00
2023-05-19T09:43:57.469Z,20.50
2023-05-19T09:49:01.764Z,21.20
2023-05-19T09:54:05.469Z,20.90
2023-05-19T09:59:10.708Z,21.90
2023-05-19T10:04:15.105Z,21.80
2023-05-19T10:09:20.152Z,22.60
2023-05-19T10:14:27.344Z,22.40
2023-05-19T10:19:31.682Z,22.20
2023-05-19T10:24:35.481Z,21.80
2023-05-19T10:29:49.421Z,21.90
2023-05-19T10:35:28.301Z,22.30
2023-05-19T10:40:35.665Z,22.20
2023-05-19T10:45:52.123Z,22.40
2023-05-19T10:50:57.162Z,23.50
2023-05-19T10:56:04.499Z,22.60
2023-05-19T11:01:14.925Z,22.50
2023-05-19T11:06:29.427Z,23.10
2023-05-19T11:11:46.940Z,22.30
2023-05-19T11:16:54.035Z,22.70
2023-05-19T11:22:12.272Z,22.70
2023-05-19T11:27:24.728Z,22.40
2023-05-19T11:32:32.106Z,22.80
2023-05-19T11:37:37.613Z,23.10
2023-05-19T11:42:42.707Z,23.30
2023-05-19T11:48:01.912Z,23.60
2023-05-19T11:53:10.582Z,24.10
2023-05-19T11:58:18.983Z,23.80
2023-05-19T12:03:28.535Z,22.90
2023-05-19T12:08:33.824Z,23.20
2023-05-19T12:13:37.882Z,23.70
2023-05-19T12:18:44.835Z,23.90
2023-05-19T12:23:51.361Z,23.70
2023-05-19T12:28:58.047Z,24.00
2023-05-19T12:34:03.110Z,22.90
2023-05-19T12:39:12.865Z,23.80
2023-05-19T12:44:18.573Z,24.30
2023-05-19T12:49:28.452Z,25.20
2023-05-19T12:54:35.134Z,25.00
2023-05-19T12:59:39.766Z,25.20
2023-05-19T13:04:46.530Z,25.90
2023-05-19T13:09:50.808Z,25.80
2023-05-19T13:14:55.664Z,23.40
2023-05-19T13:20:02.984Z,22.20
2023-05-19T13:25:08.306Z,23.70
2023-05-19T13:30:13.752Z,25.00
2023-05-19T13:35:19.009Z,24.30
2023-05-19T13:40:24.380Z,23.70
2023-05-19T13:45:30.499Z,23.20
2023-05-19T13:50:36.119Z,23.50
2023-05-19T13:55:42.245Z,23.40
2023-05-19T14:00:46.476Z,22.40
2023-05-19T14:05:53.829Z,23.10
2023-05-19T14:10:58.584Z,26.00
2023-05-19T14:16:03.327Z,25.50
2023-05-19T14:21:08.572Z,26.20
2023-05-19T14:26:12.586Z,23.60
2023-05-19T14:31:16.475Z,22.60
2023-05-19T14:36:21.342Z,22.50
2023-05-19T14:41:25.168Z,22.50
2023-05-19T14:46:29.741Z,22.20
2023-05-19T14:51:37.501Z,22.10
2023-05-19T14:56:48.934Z,22.30
2023-05-19T15:02:03.554Z,25.10
2023-05-19T15:07:11.001Z,25.50
2023-05-19T15:12:15.338Z,24.80
2023-05-19T15:17:20.755Z,25.40
2023-05-19T15:22:26.720Z,25.40
2023-05-19T15:27:31.073Z,23.70
2023-05-19T15:32:36.384Z,22.70
2023-05-19T15:37:42.383Z,21.50
2023-05-19T15:42:51.784Z,21.00
2023-05-19T15:47:56.168Z,21.00
2023-05-19T15:53:07.800Z,21.60
2023-05-19T15:58:14.107Z,21.50
2023-05-19T16:03:19.800Z,21.50
2023-05-19T16:08:25.288Z,21.20
2023-05-19T16:13:30.553Z,21.20
2023-05-19T16:18:34.086Z,21.10
2023-05-19T16:23:41.650Z,21.70
2023-05-19T16:28:45.824Z,22.80
2023-05-19T16:33:49.416Z,23.80
2023-05-19T16:38:54.628Z,22.60
2023-05-19T16:43:59.332Z,21.50
2023-05-19T16:49:04.048Z,20.90
2023-05-19T16:54:11.269Z,20.70
2023-05-19T16:59:14.678Z,20.30
2023-05-19T17:04:18.416Z,19.80
2023-05-19T17:09:26.125Z,19.60
2023-05-19T17:14:29.972Z,19.50
2023-05-19T17:19:34.798Z,19.30
2023-05-19T17:24:41.518Z,19.30
2023-05-19T17:29:45.192Z,19.20
2023-05-19T17:34:49.262Z,19.10
2023-05-19T17:39:54.318Z,18.90
2023-05-19T17:44:57.826Z,18.70
2023-05-19T17:50:01.917Z,18.70
2023-05-19T17:55:09.999Z,18.50
2023-05-19T18:00:14.624Z,18.50
2023-05-19T18:05:21.014Z,18.50
2023-05-19T18:10:27.821Z,18.40
2023-05-19T18:15:32.078Z,18.20
2023-05-19T18:20:39.451Z,18.10
2023-05-19T18:25:54.220Z,18.10
2023-05-19T18:31:01.316Z,18.10
2023-05-19T18:36:06.972Z,18.00
2023-05-19T18:41:14.710Z,17.90
2023-05-19T18:46:18.908Z,17.70
2023-05-19T18:51:22.459Z,17.60
2023-05-19T18:56:29.235Z,17.60
2023-05-19T19:01:32.994Z,17.30
2023-05-19T19:06:44.038Z,17.40
2023-05-19T19:11:50.000Z,17.30
2023-05-19T19:16:54.666Z,17.40
2023-05-19T19:21:59.122Z,17.20
2023-05-19T19:27:04.028Z,17.10
2023-05-19T19:32:09.496Z,17.00
2023-05-19T19:37:14.537Z,16.70
2023-05-19T19:42:22.795Z,16.70
2023-05-19T19:47:26.040Z,16.70
2023-05-19T19:52:32.031Z,16.60
2023-05-19T19:57:38.282Z,16.70
2023-05-19T20:03:02.855Z,16.80
2023-05-19T20:08:07.847Z,16.60
2023-05-19T20:13:18.808Z,16.50
2023-05-19T20:18:22.363Z,16.40
2023-05-19T20:23:27.480Z,16.30
2023-05-19T20:28:33.248Z,16.40
2023-05-19T20:33:36.653Z,16.40
2023-05-19T20:38:40.624Z,16.20
2023-05-19T20:43:47.046Z,16.20
2023-05-19T20:48:50.966Z,16.20
2023-05-19T20:53:54.674Z,15.80
2023-05-19T20:58:59.887Z,15.60
2023-05-19T21:04:07.444Z,15.60
2023-05-19T21:09:11.406Z,15.50
2023-05-19T21:14:17.814Z,15.40
2023-05-19T21:19:22.066Z,15.40
2023-05-19T21:24:26.024Z,15.30
2023-05-19T21:29:30.790Z,15.40
2023-05-19T21:34:36.463Z,15.50
2023-05-19T21:39:40.068Z,15.40
2023-05-19T21:44:45.987Z,15.20
2023-05-19T21:49:49.380Z,14.90
2023-05-19T21:54:53.425Z,14.90
2023-05-19T21:59:58.990Z,14.90
2023-05-19T22:05:02.401Z,14.70
2023-05-19T22:10:10.371Z,14.70
2023-05-19T22:15:17.106Z,14.60
2023-05-19T22:20:21.687Z,14.60
2023-05-19T22:25:25.822Z,14.50
2023-05-19T22:30:32.438Z,14.60
2023-05-19T22:35:36.676Z,14.60
2023-05-19T22:40:41.128Z,14.50
2023-05-19T22:45:48.945Z,14.60
2023-05-19T22:50:56.426Z,14.50
2023-05-19T22:55:59.839Z,14.50
2023-05-19T23:01:05.168Z,14.50
2023-05-19T23:06:09.665Z,14.50
2023-05-19T23:11:12.933Z,14.40
2023-05-19T23:16:19.093Z,14.40
2023-05-19T23:21:22.746Z,14.40
2023-05-19T23:26:26.686Z,14.30
2023-05-19T23:31:32.165Z,14.50
2023-05-19T23:36:39.042Z,14.40
2023-05-19T23:41:44.219Z,14.30
2023-05-19T23:46:51.360Z,14.30
2023-05-19T23:51:55.343Z,14.30
2023-05-19T23:57:00.182Z,14.40
